Time;durP1;ratioP1;P1;durP2;ratioP2;P2;SDS_P1;SDS_P2;PMS_P1;PMS_P2;Temp;Humidity;BMP_temperature;BMP_pressure;BME280_temperature;BME280_humidity;BME280_pressure;Samples;Min_cycle;Max_cycle;Signal;HPM_P1;HPM_P2
2022/07/30 00:03:21;;;;;;;3.88;2.08;;;;;;;;;;13080120;22;20022;-86
2022/07/30 00:08:26;;;;;;;2.28;1.25;;;;;;;;;;13102593;22;20038;-84
2022/07/30 00:13:40;;;;;;;1.95;1.30;;;;;;;;;;13125294;22;20011;-83
2022/07/30 00:18:44;;;;;;;5.25;2.00;;;;;;;;;;13098846;22;20631;-84
2022/07/30 00:23:56;;;;;;;2.80;1.50;;;;;;;;;;13076383;22;20022;-85
2022/07/30 00:29:04;;;;;;;3.85;1.88;;;;;;;;;;13124637;22;20025;-85
2022/07/30 00:34:08;;;;;;;;;;;;;;;;;;13129596;22;20092;-86
2022/07/30 00:39:24;;;;;;;2.47;1.50;;;;;;;;;;13123246;22;19945;-85
2022/07/30 00:44:28;;;;;;;4.38;1.75;;;;;;;;;;13102084;22;20323;-84
2022/07/30 00:49:33;;;;;;;2.03;1.35;;;;;;;;;;13100063;22;20015;-85
2022/07/30 00:54:48;;;;;;;2.55;1.80;;;;;;;;;;13125358;22;20068;-84
2022/07/30 00:59:51;;;;;;;3.22;1.60;;;;;;;;;;13124867;22;20095;-85
2022/07/30 01:05:05;;;;;;;2.83;1.90;;;;;;;;;;13075075;22;20018;-87
2022/07/30 01:10:24;;;;;;;3.00;2.13;;;;;;;;;;13103855;22;20100;-87
2022/07/30 01:15:33;;;;;;;3.95;2.08;;;;;;;;;;13101455;22;20253;-87
2022/07/30 01:21:01;;;;;;;2.45;1.55;;;;;;;;;;13080327;22;20104;-87
2022/07/30 01:26:17;;;;;;;3.58;1.70;;;;;;;;;;13100902;22;20360;-87
2022/07/30 01:31:30;;;;;;;4.22;1.88;;;;;;;;;;13101459;22;20023;-85
2022/07/30 01:36:47;;;;;;;3.42;2.38;;;;;;;;;;13078467;22;20458;-85
2022/07/30 01:42:07;;;;;;;3.65;2.05;;;;;;;;;;13123213;22;20076;-85
2022/07/30 01:47:12;;;;;;;3.08;1.67;;;;;;;;;;13123536;22;20019;-85
2022/07/30 01:52:18;;;;;;;3.80;2.10;;;;;;;;;;13050512;22;20025;-86
2022/07/30 01:57:31;;;;;;;4.95;2.08;;;;;;;;;;13103358;22;20023;-86
2022/07/30 02:02:37;;;;;;;2.85;1.83;;;;;;;;;;13100131;22;20034;-86
2022/07/30 02:07:44;;;;;;;2.70;1.98;;;;;;;;;;13100518;22;20018;-87
2022/07/30 02:12:55;;;;;;;4.72;1.98;;;;;;;;;;13100384;22;20053;-87
2022/07/30 02:18:02;;;;;;;4.03;1.70;;;;;;;;;;13072896;22;20026;-86
2022/07/30 02:23:18;;;;;;;1.95;1.70;;;;;;;;;;13101277;22;20018;-86
2022/07/30 02:28:31;;;;;;;4.57;2.60;;;;;;;;;;13124084;22;20042;-85
2022/07/30 02:33:42;;;;;;;1.92;1.35;;;;;;;;;;13103538;22;20072;-85
2022/07/30 02:38:53;;;;;;;3.72;2.67;;;;;;;;;;13128157;22;20035;-85
2022/07/30 02:44:01;;;;;;;3.45;2.30;;;;;;;;;;13103846;22;20025;-85
2022/07/30 02:49:15;;;;;;;3.72;2.00;;;;;;;;;;13076801;22;20106;-85
2022/07/30 02:54:19;;;;;;;3.78;2.70;;;;;;;;;;13102199;22;20015;-86
2022/07/30 02:59:33;;;;;;;4.30;2.10;;;;;;;;;;13101016;22;20015;-86
2022/07/30 03:04:38;;;;;;;3.70;2.63;;;;;;;;;;13099244;22;20023;-86
2022/07/30 03:09:42;;;;;;;4.53;2.35;;;;;;;;;;13100188;22;20044;-86
2022/07/30 03:14:56;;;;;;;3.67;1.97;;;;;;;;;;13121758;22;20053;-84
2022/07/30 03:20:04;;;;;;;4.43;2.78;;;;;;;;;;13121147;22;20511;-85
2022/07/30 03:25:13;;;;;;;4.30;2.60;;;;;;;;;;13096145;22;20046;-86
2022/07/30 03:30:18;;;;;;;4.40;2.80;;;;;;;;;;13121918;22;20049;-84
2022/07/30 03:35:23;;;;;;;4.65;2.40;;;;;;;;;;13096015;22;20042;-85
2022/07/30 03:40:29;;;;;;;4.63;2.97;;;;;;;;;;13098320;22;20015;-85
2022/07/30 03:45:44;;;;;;;5.68;3.00;;;;;;;;;;13120490;22;20381;-85
2022/07/30 03:50:53;;;;;;;7.18;2.95;;;;;;;;;;13072823;22;20345;-85
2022/07/30 03:56:06;;;;;;;4.32;3.15;;;;;;;;;;13098477;22;20023;-86
2022/07/30 04:01:24;;;;;;;5.22;3.03;;;;;;;;;;13098549;22;20097;-85
2022/07/30 04:06:39;;;;;;;6.32;3.33;;;;;;;;;;13093558;22;20354;-85
2022/07/30 04:11:44;;;;;;;5.03;3.28;;;;;;;;;;13122282;22;20045;-86
2022/07/30 04:16:52;;;;;;;6.80;3.28;;;;;;;;;;13123467;22;20026;-86
2022/07/30 04:22:01;;;;;;;4.88;3.15;;;;;;;;;;13103180;22;20018;-87
2022/07/30 04:27:07;;;;;;;7.10;3.05;;;;;;;;;;13103379;22;20086;-86
2022/07/30 04:32:28;;;;;;;6.07;3.33;;;;;;;;;;13100261;22;20026;-85
2022/07/30 04:37:38;;;;;;;4.63;2.95;;;;;;;;;;13124711;22;20025;-87
2022/07/30 04:42:41;;;;;;;5.10;3.08;;;;;;;;;;13124925;22;20021;-86
2022/07/30 04:47:47;;;;;;;5.35;3.20;;;;;;;;;;13103377;22;20053;-85
2022/07/30 04:53:06;;;;;;;6.80;3.17;;;;;;;;;;13103035;22;20014;-85
2022/07/30 04:58:29;;;;;;;7.38;3.33;;;;;;;;;;13078034;22;20022;-86
2022/07/30 05:03:36;;;;;;;4.45;2.65;;;;;;;;;;13104300;22;20353;-88
2022/07/30 05:08:43;;;;;;;5.95;3.15;;;;;;;;;;13107834;22;20023;-84
2022/07/30 05:13:50;;;;;;;2.70;1.75;;;;;;;;;;13127474;22;20090;-87
2022/07/30 05:19:08;;;;;;;4.40;2.65;;;;;;;;;;13100584;22;20338;-86
2022/07/30 05:24:14;;;;;;;7.05;2.97;;;;;;;;;;13126398;22;20095;-84
2022/07/30 05:29:21;;;;;;;4.93;2.70;;;;;;;;;;13102523;22;20019;-81
2022/07/30 05:34:28;;;;;;;4.07;2.97;;;;;;;;;;13074168;22;20025;-81
2022/07/30 05:39:42;;;;;;;7.20;3.10;;;;;;;;;;13121532;22;20015;-81
2022/07/30 05:45:14;;;;;;;5.35;2.17;;;;;;;;;;13121288;22;20432;-80
2022/07/30 05:50:19;;;;;;;4.97;3.22;;;;;;;;;;13096385;22;20015;-80
2022/07/30 05:55:28;;;;;;;5.82;3.22;;;;;;;;;;13099594;22;20361;-80
2022/07/30 06:00:53;;;;;;;3.97;3.20;;;;;;;;;;13100440;22;20316;-80
2022/07/30 06:05:56;;;;;;;3.22;1.40;;;;;;;;;;13098813;22;20069;-78
2022/07/30 06:11:01;;;;;;;5.68;3.05;;;;;;;;;;13073133;22;20048;-80
2022/07/30 06:16:19;;;;;;;5.25;3.25;;;;;;;;;;13120819;22;20188;-78
2022/07/30 06:21:49;;;;;;;4.22;2.85;;;;;;;;;;13124266;22;20018;-92
2022/07/30 06:27:19;;;;;;;5.10;3.13;;;;;;;;;;13128328;22;20026;-90
2022/07/30 06:43:55;;;;;;;5.93;3.40;;;;;;;;;;13117328;22;20025;-90
2022/07/30 06:49:04;;;;;;;7.57;4.50;;;;;;;;;;13111698;22;20018;-90
2022/07/30 06:54:40;;;;;;;8.10;4.18;;;;;;;;;;13115809;22;20105;-89
2022/07/30 06:59:46;;;;;;;7.00;4.20;;;;;;;;;;13124276;22;20098;-89
2022/07/30 07:05:10;;;;;;;9.00;4.15;;;;;;;;;;13101471;22;20124;-90
2022/07/30 07:10:28;;;;;;;9.65;4.75;;;;;;;;;;13101535;22;20018;-88
2022/07/30 07:15:46;;;;;;;8.05;4.70;;;;;;;;;;13127400;22;20053;-89
2022/07/30 07:20:57;;;;;;;5.88;3.67;;;;;;;;;;13120279;22;20494;-87
2022/07/30 07:26:13;;;;;;;7.90;4.63;;;;;;;;;;13152611;22;20071;-91
2022/07/30 07:31:21;;;;;;;7.75;4.60;;;;;;;;;;13128445;22;20048;-89
2022/07/30 07:36:57;;;;;;;8.25;4.68;;;;;;;;;;13101835;22;20019;-91
2022/07/30 07:42:11;;;;;;;12.45;7.30;;;;;;;;;;13098259;22;20015;-90
2022/07/30 07:47:18;;;;;;;7.63;4.88;;;;;;;;;;13122981;22;20030;-90
2022/07/30 07:52:35;;;;;;;10.48;4.53;;;;;;;;;;13136791;22;20121;-89
2022/07/30 07:57:50;;;;;;;7.90;5.47;;;;;;;;;;13129710;22;20018;-87
2022/07/30 08:02:56;;;;;;;8.50;5.43;;;;;;;;;;13114377;22;20327;-88
2022/07/30 08:08:03;;;;;;;10.02;5.40;;;;;;;;;;13120988;22;20022;-87
2022/07/30 08:13:10;;;;;;;7.15;5.13;;;;;;;;;;13111436;22;20015;-86
2022/07/30 08:18:41;;;;;;;8.20;5.10;;;;;;;;;;13113357;22;20033;-88
2022/07/30 08:23:57;;;;;;;7.72;5.03;;;;;;;;;;13106809;22;20037;-88
2022/07/30 08:29:02;;;;;;;6.18;4.88;;;;;;;;;;13113671;22;20015;-89
2022/07/30 08:39:57;;;;;;;6.38;4.18;;;;;;;;;;13106522;22;20018;-86
2022/07/30 08:45:09;;;;;;;5.85;4.40;;;;;;;;;;13109191;22;20030;-86
2022/07/30 08:50:17;;;;;;;5.72;4.25;;;;;;;;;;13118593;22;20011;-89
2022/07/30 08:55:36;;;;;;;7.05;4.50;;;;;;;;;;13110058;22;20393;-88
2022/07/30 09:01:05;;;;;;;6.72;4.10;;;;;;;;;;13098449;22;20311;-86
2022/07/30 09:06:12;;;;;;;5.78;3.80;;;;;;;;;;13100670;22;20014;-88
2022/07/30 09:11:37;;;;;;;5.30;4.22;;;;;;;;;;13100110;22;20182;-88
2022/07/30 09:16:48;;;;;;;8.02;4.43;;;;;;;;;;13102349;22;20026;-88
2022/07/30 09:21:58;;;;;;;6.72;3.45;;;;;;;;;;13104335;22;20041;-88
2022/07/30 09:27:04;;;;;;;;;;;;;;;;;;13103922;22;20322;-89
2022/07/30 09:37:44;;;;;;;6.65;4.05;;;;;;;;;;13131794;22;20025;-88
2022/07/30 09:43:06;;;;;;;5.97;3.53;;;;;;;;;;13113612;22;20344;-88
2022/07/30 09:48:23;;;;;;;4.88;3.67;;;;;;;;;;13100845;22;20019;-88
2022/07/30 09:53:28;;;;;;;4.70;3.55;;;;;;;;;;13103026;22;20802;-90
2022/07/30 09:58:42;;;;;;;5.43;3.08;;;;;;;;;;13132008;22;20029;-89
2022/07/30 10:04:13;;;;;;;4.43;3.58;;;;;;;;;;13116716;22;20019;-90
2022/07/30 10:09:28;;;;;;;5.90;3.10;;;;;;;;;;13113330;22;20019;-89
2022/07/30 10:14:35;;;;;;;5.47;3.05;;;;;;;;;;13086792;22;20023;-89
2022/07/30 10:19:49;;;;;;;6.75;3.03;;;;;;;;;;13115223;22;20014;-89
2022/07/30 10:25:10;;;;;;;4.25;3.00;;;;;;;;;;13120698;22;20059;-90
2022/07/30 10:30:20;;;;;;;6.13;3.08;;;;;;;;;;13159668;22;19999;-90
2022/07/30 10:35:43;;;;;;;3.10;2.80;;;;;;;;;;13159563;22;20152;-91
2022/07/30 10:40:55;;;;;;;4.10;3.70;;;;;;;;;;13184229;22;20056;-91
2022/07/30 10:46:10;;;;;;;3.17;2.60;;;;;;;;;;13180627;22;20029;-89
2022/07/30 10:57:13;;;;;;;4.38;3.33;;;;;;;;;;13120128;22;20081;-91
2022/07/30 11:02:40;;;;;;;3.95;2.80;;;;;;;;;;13083059;22;20018;-91
2022/07/30 11:07:47;;;;;;;3.47;2.60;;;;;;;;;;13082243;22;20431;-91
2022/07/30 11:12:59;;;;;;;3.58;2.50;;;;;;;;;;13106511;22;20080;-91
2022/07/30 11:18:10;;;;;;;2.70;1.92;;;;;;;;;;13105888;22;20102;-91
2022/07/30 11:23:40;;;;;;;5.55;3.00;;;;;;;;;;13106483;22;20084;-89
2022/07/30 11:29:18;;;;;;;4.32;2.30;;;;;;;;;;13115674;22;20023;-89
2022/07/30 11:34:46;;;;;;;3.28;2.47;;;;;;;;;;13092313;22;20044;-89
2022/07/30 11:40:11;;;;;;;2.75;2.50;;;;;;;;;;13115882;22;20504;-90
2022/07/30 11:45:37;;;;;;;3.80;2.65;;;;;;;;;;13133961;22;20026;-91
2022/07/30 11:50:52;;;;;;;2.75;2.40;;;;;;;;;;13085262;22;20035;-91
2022/07/30 11:56:15;;;;;;;4.78;2.35;;;;;;;;;;13112951;22;20011;-90
2022/07/30 12:01:29;;;;;;;3.33;2.40;;;;;;;;;;13110170;22;20053;-90
2022/07/30 12:06:46;;;;;;;2.92;2.17;;;;;;;;;;13107586;22;20029;-87
2022/07/30 12:12:22;;;;;;;3.28;2.17;;;;;;;;;;13108138;22;20445;-87
2022/07/30 12:17:48;;;;;;;3.03;2.00;;;;;;;;;;13104611;22;20430;-90
2022/07/30 12:23:22;;;;;;;3.58;2.50;;;;;;;;;;13108474;22;20022;-90
2022/07/30 12:28:34;;;;;;;4.90;2.20;;;;;;;;;;13105877;22;20331;-89
2022/07/30 12:34:01;;;;;;;3.22;1.95;;;;;;;;;;13106819;22;20349;-89
2022/07/30 12:39:21;;;;;;;2.35;1.70;;;;;;;;;;13107935;22;20022;-90
2022/07/30 12:44:44;;;;;;;4.30;2.15;;;;;;;;;;13109939;22;20405;-89
2022/07/30 12:50:18;;;;;;;2.25;2.03;;;;;;;;;;13109707;22;20035;-90
2022/07/30 12:55:31;;;;;;;4.72;2.35;;;;;;;;;;13104268;22;20026;-90
2022/07/30 13:00:50;;;;;;;2.20;2.00;;;;;;;;;;13104203;22;20014;-86
2022/07/30 13:06:26;;;;;;;3.03;2.17;;;;;;;;;;13104949;22;20022;-87
2022/07/30 13:11:40;;;;;;;3.85;2.47;;;;;;;;;;13104699;22;20010;-87
2022/07/30 13:16:59;;;;;;;2.80;2.08;;;;;;;;;;13105843;22;20572;-87
2022/07/30 13:22:12;;;;;;;3.85;2.42;;;;;;;;;;13106089;22;20014;-87
2022/07/30 13:27:17;;;;;;;3.50;2.20;;;;;;;;;;13107250;22;20109;-87
2022/07/30 13:32:38;;;;;;;3.63;2.13;;;;;;;;;;13079443;22;20022;-88
2022/07/30 13:37:55;;;;;;;5.03;2.30;;;;;;;;;;13102666;22;20102;-88
2022/07/30 13:43:05;;;;;;;4.25;2.38;;;;;;;;;;13102225;22;20072;-87
2022/07/30 13:53:44;;;;;;;3.63;2.30;;;;;;;;;;13102979;22;20037;-87
2022/07/30 13:58:55;;;;;;;3.20;2.13;;;;;;;;;;13101923;22;20135;-87
2022/07/30 14:04:08;;;;;;;3.20;2.55;;;;;;;;;;13101852;22;20152;-87
2022/07/30 14:09:26;;;;;;;3.70;2.25;;;;;;;;;;13100194;22;20019;-88
2022/07/30 14:20:26;;;;;;;3.13;2.30;;;;;;;;;;13099847;22;20117;-86
2022/07/30 14:25:40;;;;;;;2.78;2.47;;;;;;;;;;13100824;22;20072;-87
2022/07/30 14:30:54;;;;;;;6.47;2.60;;;;;;;;;;13073828;22;20245;-87
2022/07/30 14:36:05;;;;;;;4.05;2.22;;;;;;;;;;13097115;22;20039;-87
2022/07/30 14:41:12;;;;;;;3.20;2.30;;;;;;;;;;13098875;22;20022;-87
2022/07/30 14:46:18;;;;;;;4.18;3.15;;;;;;;;;;13074525;22;20022;-87
2022/07/30 14:51:32;;;;;;;3.30;2.03;;;;;;;;;;13102525;22;20023;-87
2022/07/30 14:56:41;;;;;;;3.45;2.00;;;;;;;;;;13124380;22;20076;-87
2022/07/30 15:01:53;;;;;;;5.10;2.03;;;;;;;;;;13122263;22;20011;-87
2022/07/30 15:07:05;;;;;;;2.67;2.05;;;;;;;;;;13098215;22;20438;-87
2022/07/30 15:12:15;;;;;;;4.28;2.20;;;;;;;;;;13099837;22;20038;-86
2022/07/30 15:23:06;;;;;;;2.30;2.08;;;;;;;;;;13100873;22;20358;-86
2022/07/30 15:28:24;;;;;;;4.50;2.30;;;;;;;;;;13074259;22;20321;-87
2022/07/30 15:33:41;;;;;;;6.33;2.60;;;;;;;;;;13099135;22;20347;-86
2022/07/30 15:38:59;;;;;;;3.55;2.20;;;;;;;;;;13098818;22;20019;-85
2022/07/30 15:49:35;;;;;;;2.42;1.90;;;;;;;;;;13097453;22;20019;-85
2022/07/30 15:54:54;;;;;;;2.53;2.10;;;;;;;;;;13100190;22;20043;-86
2022/07/30 16:00:19;;;;;;;2.45;2.00;;;;;;;;;;13080165;22;20039;-86
2022/07/30 16:05:34;;;;;;;2.25;1.83;;;;;;;;;;13077314;22;20015;-87
2022/07/30 16:11:02;;;;;;;2.78;1.90;;;;;;;;;;13101920;22;20093;-85
2022/07/30 16:16:16;;;;;;;3.28;1.85;;;;;;;;;;13102354;22;20018;-86
2022/07/30 16:21:28;;;;;;;4.25;1.67;;;;;;;;;;13100762;22;20038;-85
2022/07/30 16:26:54;;;;;;;1.80;1.55;;;;;;;;;;13101452;22;20176;-87
2022/07/30 16:32:03;;;;;;;4.47;2.92;;;;;;;;;;13076674;22;20033;-87
2022/07/30 16:37:09;;;;;;;2.22;1.90;;;;;;;;;;13101952;22;20018;-87
2022/07/30 16:42:29;;;;;;;2.47;1.90;;;;;;;;;;13102111;22;20025;-86
2022/07/30 16:47:40;;;;;;;4.03;2.63;;;;;;;;;;13125625;22;20018;-86
2022/07/30 16:52:49;;;;;;;4.03;2.42;;;;;;;;;;13077993;22;20102;-86
2022/07/30 16:57:57;;;;;;;4.97;2.08;;;;;;;;;;13104277;22;20290;-86
2022/07/30 17:03:14;;;;;;;3.17;2.17;;;;;;;;;;13108539;22;20044;-87
2022/07/30 17:08:28;;;;;;;6.65;3.58;;;;;;;;;;13130643;22;20023;-87
2022/07/30 17:13:48;;;;;;;4.38;2.15;;;;;;;;;;13080517;22;20023;-86
2022/07/30 17:19:08;;;;;;;5.03;2.97;;;;;;;;;;13104814;22;20023;-87
2022/07/30 17:24:25;;;;;;;9.38;5.78;;;;;;;;;;13105971;22;20022;-86
2022/07/30 17:29:46;;;;;;;4.43;2.50;;;;;;;;;;13119534;22;20102;-86
2022/07/30 17:40:16;;;;;;;5.20;2.70;;;;;;;;;;13160566;22;20019;-86
2022/07/30 17:50:42;;;;;;;7.75;2.65;;;;;;;;;;13159045;22;20018;-87
2022/07/30 17:56:06;;;;;;;4.38;2.45;;;;;;;;;;13170167;22;20074;-86
2022/07/30 18:06:57;;;;;;;4.90;2.55;;;;;;;;;;13104236;22;20025;-87
2022/07/30 18:12:01;;;;;;;7.97;2.80;;;;;;;;;;13100231;22;20115;-87
2022/07/30 18:17:17;;;;;;;6.35;3.90;;;;;;;;;;13123681;22;20350;-86
2022/07/30 18:22:50;;;;;;;6.80;3.20;;;;;;;;;;13100736;22;20462;-87
2022/07/30 18:33:33;;;;;;;5.32;2.67;;;;;;;;;;13099224;22;20397;-85
2022/07/30 18:38:45;;;;;;;6.05;3.67;;;;;;;;;;13102128;22;20019;-84
2022/07/30 18:43:53;;;;;;;4.72;3.05;;;;;;;;;;13105699;22;20145;-86
2022/07/30 18:49:06;;;;;;;8.43;3.83;;;;;;;;;;13077542;22;20048;-86
2022/07/30 18:54:51;;;;;;;7.97;4.20;;;;;;;;;;13100395;22;20045;-86
2022/07/30 18:59:58;;;;;;;4.88;2.85;;;;;;;;;;13099377;22;20255;-86
2022/07/30 19:05:22;;;;;;;6.97;3.40;;;;;;;;;;13102426;22;20011;-86
2022/07/30 19:15:52;;;;;;;5.13;3.60;;;;;;;;;;13102228;22;20038;-86
2022/07/30 19:26:55;;;;;;;6.93;3.28;;;;;;;;;;13105402;22;20046;-86
2022/07/30 19:32:06;;;;;;;5.90;3.13;;;;;;;;;;13099722;22;20167;-86
2022/07/30 19:37:17;;;;;;;8.25;3.63;;;;;;;;;;13097494;22;20015;-86
2022/07/30 19:42:26;;;;;;;5.93;3.55;;;;;;;;;;13070395;22;20018;-86
2022/07/30 19:47:39;;;;;;;9.43;5.60;;;;;;;;;;13097862;22;20504;-85
2022/07/30 19:53:03;;;;;;;6.72;3.88;;;;;;;;;;13117031;22;20458;-86
2022/07/30 19:58:29;;;;;;;7.07;3.90;;;;;;;;;;13084847;22;20015;-86
2022/07/30 20:03:53;;;;;;;14.93;9.00;;;;;;;;;;13108666;22;20030;-85
2022/07/30 20:09:15;;;;;;;8.32;3.75;;;;;;;;;;13128586;22;20442;-85
2022/07/30 20:14:33;;;;;;;5.70;3.75;;;;;;;;;;13101143;22;20014;-75
2022/07/30 20:19:38;;;;;;;6.72;4.40;;;;;;;;;;13101987;22;20022;-75
2022/07/30 20:24:50;;;;;;;8.18;4.78;;;;;;;;;;13101208;22;20023;-75
2022/07/30 20:29:58;;;;;;;8.48;4.95;;;;;;;;;;13075900;22;20075;-75
2022/07/30 20:35:12;;;;;;;7.85;5.07;;;;;;;;;;13104219;22;20018;-77
2022/07/30 20:40:22;;;;;;;7.10;4.93;;;;;;;;;;13124711;22;20400;-75
2022/07/30 20:51:03;;;;;;;10.00;5.32;;;;;;;;;;13101020;22;20348;-76
2022/07/30 20:56:11;;;;;;;9.45;6.03;;;;;;;;;;13099369;22;20387;-75
2022/07/30 21:01:24;;;;;;;15.00;8.73;;;;;;;;;;13104205;22;20015;-77
2022/07/30 21:06:30;;;;;;;9.15;5.80;;;;;;;;;;13105448;22;20064;-75
2022/07/30 21:11:39;;;;;;;8.38;5.55;;;;;;;;;;13104123;22;20466;-76
2022/07/30 21:16:55;;;;;;;10.75;6.13;;;;;;;;;;13123067;22;20067;-75
2022/07/30 21:22:00;;;;;;;6.72;4.97;;;;;;;;;;13102251;22;20077;-76
2022/07/30 21:27:15;;;;;;;8.85;5.32;;;;;;;;;;13101898;22;20029;-78
2022/07/30 21:32:24;;;;;;;10.15;6.25;;;;;;;;;;13122514;22;20025;-76
2022/07/30 21:37:29;;;;;;;10.23;5.03;;;;;;;;;;13122086;22;20007;-75
2022/07/30 21:42:41;;;;;;;9.07;5.50;;;;;;;;;;13101085;22;20014;-75
2022/07/30 21:47:53;;;;;;;8.57;5.38;;;;;;;;;;13098821;22;20256;-76
2022/07/30 21:53:07;;;;;;;7.13;4.72;;;;;;;;;;13104685;22;20453;-75
2022/07/30 21:58:11;;;;;;;9.23;4.82;;;;;;;;;;13107051;22;20093;-76
2022/07/30 22:03:30;;;;;;;8.60;5.68;;;;;;;;;;13077376;22;20072;-76
2022/07/30 22:08:56;;;;;;;8.30;5.28;;;;;;;;;;13083581;22;20030;-75
2022/07/30 22:14:03;;;;;;;8.20;5.80;;;;;;;;;;13104843;22;20015;-75
2022/07/30 22:19:15;;;;;;;8.50;5.63;;;;;;;;;;13074993;22;20023;-76
2022/07/30 22:24:23;;;;;;;10.63;5.80;;;;;;;;;;13100504;22;20022;-75
2022/07/30 22:29:36;;;;;;;;;;;;;;;;;;13076789;22;20023;-75
2022/07/30 22:34:45;;;;;;;7.43;5.35;;;;;;;;;;13097784;22;19987;-77
2022/07/30 22:39:50;;;;;;;8.10;5.53;;;;;;;;;;13099692;22;20022;-76
2022/07/30 22:44:58;;;;;;;7.72;4.60;;;;;;;;;;13100234;22;20021;-76
2022/07/30 22:50:14;;;;;;;9.43;4.63;;;;;;;;;;13099078;22;20026;-76
2022/07/30 22:55:27;;;;;;;7.32;4.68;;;;;;;;;;13071959;22;20254;-76
2022/07/30 23:00:31;;;;;;;8.35;5.10;;;;;;;;;;13097550;22;20067;-76
2022/07/30 23:05:39;;;;;;;6.20;4.55;;;;;;;;;;13121626;22;20575;-76
2022/07/30 23:10:58;;;;;;;9.35;4.85;;;;;;;;;;13075920;22;20277;-76
2022/07/30 23:16:04;;;;;;;7.55;4.85;;;;;;;;;;13097213;22;20287;-76
2022/07/30 23:21:12;;;;;;;7.18;4.40;;;;;;;;;;13098835;22;20034;-76
2022/07/30 23:26:20;;;;;;;7.25;4.57;;;;;;;;;;13102004;22;20026;-77
2022/07/30 23:31:24;;;;;;;6.85;4.68;;;;;;;;;;13076239;22;20023;-76
2022/07/30 23:36:30;;;;;;;6.60;4.47;;;;;;;;;;13100508;22;20103;-76
2022/07/30 23:41:37;;;;;;;6.15;4.47;;;;;;;;;;13101135;22;20048;-76
2022/07/30 23:46:43;;;;;;;7.40;4.80;;;;;;;;;;13100274;22;20019;-75
2022/07/30 23:51:55;;;;;;;7.15;5.10;;;;;;;;;;13101001;22;20046;-76
2022/07/30 23:57:10;;;;;;;7.80;4.63;;;;;;;;;;13100713;22;20371;-76
